Time;durP1;ratioP1;P1;durP2;ratioP2;P2;SDS_P1;SDS_P2;PMS_P1;PMS_P2;Temp;Humidity;BMP_temperature;BMP_pressure;BME280_temperature;BME280_humidity;BME280_pressure;Samples;Min_cycle;Max_cycle;Signal;HPM_P1;HPM_P2
2023/09/12 00:00:06;;;;;;;75.07;44.45;;;;;;;-144.73;100.00;54350.22;5031882;28;20045;-70
2023/09/12 00:02:31;;;;;;;72.47;46.15;;;;;;;-144.73;100.00;54350.22;5029140;28;20048;-69
2023/09/12 00:04:56;;;;;;;85.72;50.03;;;;;;;-144.73;100.00;54325.59;5029374;28;20037;-69
2023/09/12 00:07:22;;;;;;;80.10;49.42;;;;;;;-144.73;100.00;54329.72;5032000;28;20014;-69
2023/09/12 00:09:47;;;;;;;80.72;48.13;;;;;;;-144.73;100.00;54321.50;5033391;28;20438;-69
2023/09/12 00:12:15;;;;;;;82.97;52.35;;;;;;;-144.73;100.00;54327.66;5031048;28;20029;-69
2023/09/12 00:14:41;;;;;;;84.28;51.65;;;;;;;-144.73;100.00;54342.03;5031692;28;20026;-70
2023/09/12 00:17:06;;;;;;;90.57;54.20;;;;;;;-144.73;100.00;54325.59;5031524;28;20033;-69
2023/09/12 00:19:31;;;;;;;85.88;54.05;;;;;;;-144.73;100.00;54346.13;5031344;28;20021;-69
2023/09/12 00:21:57;;;;;;;100.22;58.47;;;;;;;-144.73;100.00;54366.66;5031295;28;20037;-70
2023/09/12 00:24:22;;;;;;;107.63;63.67;;;;;;;-144.73;100.00;54378.97;5033221;28;20394;-70
2023/09/12 00:26:48;;;;;;;112.25;63.15;;;;;;;-144.73;100.00;54372.81;5031271;28;20145;-69
2023/09/12 00:29:13;;;;;;;113.45;66.70;;;;;;;-144.73;100.00;54350.22;5025742;28;20498;-69
2023/09/12 00:31:38;;;;;;;121.43;68.97;;;;;;;-144.73;100.00;54370.75;5032141;28;20030;-69
2023/09/12 00:34:04;;;;;;;134.48;73.15;;;;;;;-144.73;100.00;54383.06;5031949;28;20029;-68
2023/09/12 00:36:29;;;;;;;129.15;70.97;;;;;;;-144.73;100.00;54354.34;5026767;28;20034;-69
2023/09/12 00:38:54;;;;;;;135.50;69.03;;;;;;;-144.73;100.00;54366.66;5028754;28;20037;-69
2023/09/12 00:41:20;;;;;;;153.65;78.22;;;;;;;-144.73;100.00;54385.13;5031406;28;20040;-69
2023/09/12 00:43:45;;;;;;;136.60;68.63;;;;;;;-144.73;100.00;54378.97;5031201;28;20029;-70
2023/09/12 00:46:13;;;;;;;131.90;66.72;;;;;;;-144.73;100.00;54329.72;5030951;28;20033;-68
2023/09/12 00:48:39;;;;;;;110.78;62.13;;;;;;;-144.73;100.00;54325.59;5029937;28;20083;-70
2023/09/12 00:51:05;;;;;;;128.48;68.20;;;;;;;-144.73;100.00;54383.06;5030875;28;20104;-69
2023/09/12 00:53:31;;;;;;;123.55;60.50;;;;;;;-144.73;100.00;54329.72;5031210;28;20025;-69
2023/09/12 00:55:58;;;;;;;117.30;61.47;;;;;;;-144.73;100.00;54358.44;5030443;28;20040;-70
2023/09/12 00:58:25;;;;;;;107.60;57.72;;;;;;;-144.73;100.00;54374.84;5029403;28;20048;-70
2023/09/12 01:00:51;;;;;;;100.25;53.05;;;;;;;-144.73;100.00;54362.53;5029059;28;20037;-70
2023/09/12 01:03:16;;;;;;;99.55;55.40;;;;;;;-144.73;100.00;54366.66;5029702;28;20033;-70
2023/09/12 01:05:43;;;;;;;82.15;47.10;;;;;;;-144.73;100.00;54378.97;5031543;28;20037;-70
2023/09/12 01:08:09;;;;;;;89.40;48.38;;;;;;;-144.73;100.00;54407.69;5031660;28;20040;-68
2023/09/12 01:10:34;;;;;;;77.50;44.63;;;;;;;-144.73;100.00;54391.28;5030774;28;20037;-68
2023/09/12 01:13:00;;;;;;;83.15;47.75;;;;;;;-144.73;100.00;54358.44;5028106;28;20032;-71
2023/09/12 01:15:25;;;;;;;76.18;44.38;;;;;;;-144.73;100.00;54370.75;5028843;28;20029;-69
2023/09/12 01:17:50;;;;;;;79.20;42.55;;;;;;;-144.73;100.00;54352.28;5032006;28;20029;-69
2023/09/12 01:20:22;;;;;;;66.45;42.45;;;;;;;-144.73;100.00;54374.84;5029492;28;20025;-69
2023/09/12 01:23:00;;;;;;;;;;;;;;;-144.73;100.00;54352.28;5031879;28;20033;-69
2023/09/12 01:25:49;;;;;;;70.25;37.80;;;;;;;-144.73;100.00;54376.91;5029405;28;19913;-69
2023/09/12 01:28:16;;;;;;;71.15;39.75;;;;;;;-144.73;100.00;54407.69;5029911;28;20036;-69
2023/09/12 01:30:45;;;;;;;65.28;39.20;;;;;;;-144.73;100.00;54407.69;5030666;28;20041;-69
2023/09/12 01:33:10;;;;;;;61.10;36.58;;;;;;;-144.73;100.00;54391.28;5030590;28;20057;-69
2023/09/12 01:35:36;;;;;;;62.85;39.85;;;;;;;-144.73;100.00;54366.66;5029613;28;20081;-70
2023/09/12 01:38:02;;;;;;;66.32;36.45;;;;;;;-144.73;100.00;54366.66;5030016;28;20083;-69
2023/09/12 01:40:35;;;;;;;61.72;38.10;;;;;;;-144.73;100.00;54362.53;5029306;28;20037;-70
2023/09/12 01:43:03;;;;;;;59.65;36.40;;;;;;;-144.73;100.00;54331.75;5030613;28;20488;-69
2023/09/12 01:45:29;;;;;;;59.92;36.15;;;;;;;-144.73;100.00;54387.19;5028596;28;20037;-70
2023/09/12 01:47:55;;;;;;;54.33;33.50;;;;;;;-144.73;100.00;54346.13;5029541;28;20026;-69
2023/09/12 01:50:22;;;;;;;58.38;36.67;;;;;;;-144.73;100.00;54370.75;5028836;28;20044;-69
2023/09/12 01:52:48;;;;;;;57.67;36.03;;;;;;;-144.73;100.00;54362.53;5028022;28;20029;-70
2023/09/12 01:55:15;;;;;;;61.53;33.95;;;;;;;-144.73;100.00;54397.44;5029745;28;20037;-69
2023/09/12 01:57:41;;;;;;;49.22;32.15;;;;;;;-144.73;100.00;54383.06;5029671;28;20036;-71
2023/09/12 02:00:07;;;;;;;57.25;33.70;;;;;;;-144.73;100.00;54337.91;5030329;28;20026;-71
2023/09/12 02:02:32;;;;;;;64.07;38.05;;;;;;;-144.73;100.00;54337.91;5029800;28;20029;-71
2023/09/12 02:05:12;;;;;;;63.58;35.33;;;;;;;-144.73;100.00;54362.53;5029291;28;20091;-71
2023/09/12 02:07:39;;;;;;;53.63;35.15;;;;;;;-144.73;100.00;54381.00;5026529;28;20014;-71
2023/09/12 02:10:05;;;;;;;66.38;39.65;;;;;;;-144.73;100.00;54354.34;5030165;28;20034;-71
2023/09/12 02:12:32;;;;;;;66.30;39.70;;;;;;;-144.73;100.00;54352.28;5026920;28;20112;-71
2023/09/12 02:14:57;;;;;;;72.68;41.85;;;;;;;-144.73;100.00;54387.19;5028678;28;20492;-71
2023/09/12 02:17:22;;;;;;;68.38;40.25;;;;;;;-144.73;100.00;54395.38;5029266;28;20027;-71
2023/09/12 02:19:48;;;;;;;62.40;38.33;;;;;;;-144.73;100.00;54350.22;5030186;28;20085;-71
2023/09/12 02:22:14;;;;;;;60.25;37.47;;;;;;;-144.73;100.00;54366.66;5028975;28;20026;-71
2023/09/12 02:24:39;;;;;;;64.78;36.30;;;;;;;-144.73;100.00;54378.97;5028460;28;20032;-71
2023/09/12 02:27:05;;;;;;;69.85;38.17;;;;;;;-144.73;100.00;54374.84;5030377;28;20022;-71
2023/09/12 02:29:32;;;;;;;74.35;40.90;;;;;;;-144.73;100.00;54385.13;5028949;28;20036;-71
2023/09/12 02:31:57;;;;;;;75.35;42.25;;;;;;;-144.73;100.00;54399.50;5029100;28;20045;-71
2023/09/12 02:34:23;;;;;;;82.35;41.03;;;;;;;-144.73;100.00;54372.81;5029252;28;20029;-71
2023/09/12 02:36:48;;;;;;;82.63;43.25;;;;;;;-144.73;100.00;54339.97;5028202;28;20030;-71
2023/09/12 02:39:14;;;;;;;63.58;41.38;;;;;;;-144.73;100.00;54350.22;5028843;28;20029;-71
2023/09/12 02:41:39;;;;;;;84.60;42.30;;;;;;;-144.73;100.00;54391.28;5027171;28;20049;-71
2023/09/12 02:44:05;;;;;;;69.00;37.70;;;;;;;-144.73;100.00;54407.69;5031613;28;20032;-71
2023/09/12 02:46:30;;;;;;;78.88;40.30;;;;;;;-144.73;100.00;54391.28;5030854;28;20099;-71
2023/09/12 02:48:55;;;;;;;72.13;39.05;;;;;;;-144.73;100.00;54383.06;5032382;28;20025;-71
2023/09/12 02:51:21;;;;;;;65.25;37.22;;;;;;;-144.73;100.00;54383.06;5028227;28;20095;-71
2023/09/12 02:53:46;;;;;;;69.82;38.20;;;;;;;-144.73;100.00;54374.84;5032668;28;20022;-71
2023/09/12 02:56:12;;;;;;;65.75;36.55;;;;;;;-144.73;100.00;54383.06;5031937;28;20124;-71
2023/09/12 02:58:37;;;;;;;63.90;38.97;;;;;;;-144.73;100.00;54407.69;5032038;28;20049;-71
2023/09/12 03:01:05;;;;;;;69.05;37.63;;;;;;;-144.73;100.00;54358.44;5032766;28;20045;-71
2023/09/12 03:03:30;;;;;;;66.30;38.30;;;;;;;-144.73;100.00;54376.91;5032288;28;20148;-71
2023/09/12 03:06:00;;;;;;;70.30;37.58;;;;;;;-144.73;100.00;54391.28;5031752;28;20108;-71
2023/09/12 03:08:25;;;;;;;69.20;38.35;;;;;;;-144.73;100.00;54362.53;5030537;28;20109;-71
2023/09/12 03:10:57;;;;;;;81.25;40.85;;;;;;;-144.73;100.00;54366.66;5029817;28;20113;-71
2023/09/12 03:13:26;;;;;;;77.47;43.38;;;;;;;-144.73;100.00;54399.50;5029622;28;20025;-71
2023/09/12 03:15:52;;;;;;;65.35;39.03;;;;;;;-144.73;100.00;54407.69;5032503;28;20153;-71
2023/09/12 03:18:18;;;;;;;69.78;41.80;;;;;;;-144.73;100.00;54387.19;5033457;28;20029;-71
2023/09/12 03:20:43;;;;;;;84.65;42.45;;;;;;;-144.73;100.00;54362.53;5032653;28;20040;-71
2023/09/12 03:23:09;;;;;;;87.05;44.05;;;;;;;-144.73;100.00;54395.38;5033442;28;20026;-70
2023/09/12 03:25:38;;;;;;;80.93;46.00;;;;;;;-144.73;100.00;54391.28;5031771;28;20557;-71
2023/09/12 03:28:05;;;;;;;81.25;45.70;;;;;;;-144.73;100.00;54376.91;5032373;28;20039;-70
2023/09/12 03:30:32;;;;;;;84.43;47.53;;;;;;;-144.73;100.00;54378.97;5031061;28;20021;-71
2023/09/12 03:32:58;;;;;;;92.78;49.22;;;;;;;-144.73;100.00;54393.34;5032421;28;20045;-71
2023/09/12 03:35:23;;;;;;;85.15;47.28;;;;;;;-144.73;100.00;54422.06;5030917;28;20084;-71
2023/09/12 03:37:48;;;;;;;94.53;49.10;;;;;;;-144.73;100.00;54411.81;5029977;28;20456;-71
2023/09/12 03:40:14;;;;;;;88.38;51.20;;;;;;;-144.73;100.00;54407.69;5031577;28;20056;-71
2023/09/12 03:42:39;;;;;;;96.43;50.30;;;;;;;-144.73;100.00;54383.06;5029719;28;20112;-71
2023/09/12 03:45:05;;;;;;;105.47;52.53;;;;;;;-144.73;100.00;54366.66;5029071;28;20029;-70
2023/09/12 03:47:31;;;;;;;97.50;54.13;;;;;;;-144.73;100.00;54422.06;5032920;28;20041;-72
2023/09/12 03:49:56;;;;;;;110.47;58.80;;;;;;;-144.73;100.00;54407.69;5030982;28;20090;-71
2023/09/12 03:52:21;;;;;;;120.57;61.15;;;;;;;-144.73;100.00;54424.13;5031619;28;20087;-73
2023/09/12 03:54:47;;;;;;;117.72;61.60;;;;;;;-144.73;100.00;54391.28;5031086;28;20022;-72
2023/09/12 03:57:12;;;;;;;143.95;68.55;;;;;;;-144.73;100.00;54378.97;5031160;28;20025;-72
2023/09/12 03:59:37;;;;;;;116.13;59.13;;;;;;;-144.73;100.00;54389.22;5031071;28;20180;-72
2023/09/12 04:02:03;;;;;;;134.77;64.38;;;;;;;-144.73;100.00;54376.91;5027792;28;20436;-72
2023/09/12 04:04:28;;;;;;;129.00;65.95;;;;;;;-144.73;100.00;54424.13;5026453;28;20109;-74
2023/09/12 04:06:54;;;;;;;137.75;68.88;;;;;;;-144.73;100.00;54411.81;5028469;28;20053;-73
2023/09/12 04:09:20;;;;;;;141.90;67.82;;;;;;;-144.73;100.00;54389.22;5032099;28;20029;-73
2023/09/12 04:11:46;;;;;;;122.55;65.80;;;;;;;-144.73;100.00;54391.28;5030770;28;20036;-74
2023/09/12 04:14:13;;;;;;;146.48;69.18;;;;;;;-144.73;100.00;54387.19;5033079;28;20029;-74
2023/09/12 04:16:39;;;;;;;141.10;68.68;;;;;;;-144.73;100.00;54417.97;5029387;28;20373;-76
2023/09/12 04:19:04;;;;;;;162.02;70.63;;;;;;;-144.73;100.00;54422.06;5033187;28;20083;-76
2023/09/12 04:21:29;;;;;;;143.98;68.93;;;;;;;-144.73;100.00;54407.69;5033330;28;20029;-76
2023/09/12 04:23:55;;;;;;;166.77;72.10;;;;;;;-144.73;100.00;54407.69;5032451;28;20057;-76
2023/09/12 04:26:20;;;;;;;146.55;71.82;;;;;;;-144.73;100.00;54395.38;5032077;28;20032;-75
2023/09/12 04:28:47;;;;;;;186.70;83.25;;;;;;;-144.73;100.00;54399.50;5030257;28;20056;-75
2023/09/12 04:31:12;;;;;;;200.82;83.07;;;;;;;-144.73;100.00;54448.75;5032165;28;20102;-76
2023/09/12 04:33:38;;;;;;;142.55;69.40;;;;;;;-144.73;100.00;54407.69;5030676;28;20476;-75
2023/09/12 04:36:03;;;;;;;146.43;70.25;;;;;;;-144.73;100.00;54393.34;5030726;28;20025;-75
2023/09/12 04:38:29;;;;;;;173.15;78.00;;;;;;;-144.73;100.00;54383.06;5032084;28;20028;-75
2023/09/12 04:41:02;;;;;;;146.88;70.72;;;;;;;-144.73;100.00;54413.84;5031108;28;20026;-75
2023/09/12 04:43:27;;;;;;;129.50;62.65;;;;;;;-144.73;100.00;54434.38;5032155;28;20025;-75
2023/09/12 04:45:53;;;;;;;124.82;66.13;;;;;;;-144.73;100.00;54378.97;5031889;28;20053;-76
2023/09/12 04:48:18;;;;;;;151.93;73.57;;;;;;;-144.73;100.00;54420.00;5028073;28;20021;-75
2023/09/12 04:50:44;;;;;;;149.90;72.35;;;;;;;-144.73;100.00;54440.53;5031944;28;20041;-75
2023/09/12 04:53:09;;;;;;;150.65;72.78;;;;;;;-144.73;100.00;54399.50;5032600;28;20071;-75
2023/09/12 04:55:36;;;;;;;216.07;89.63;;;;;;;-144.73;100.00;54428.22;5031367;28;20040;-77
2023/09/12 04:58:01;;;;;;;200.20;85.90;;;;;;;-144.73;100.00;54395.38;5031458;28;20108;-75
2023/09/12 05:00:27;;;;;;;178.00;85.28;;;;;;;-144.73;100.00;54434.38;5030962;28;20125;-77
2023/09/12 05:02:52;;;;;;;204.23;86.78;;;;;;;-144.73;100.00;54372.81;5033587;28;20484;-75
2023/09/12 05:05:17;;;;;;;171.95;80.75;;;;;;;-144.73;100.00;54407.69;5032618;28;20045;-76
2023/09/12 05:07:43;;;;;;;185.20;82.72;;;;;;;-144.73;100.00;54395.38;5028083;28;20148;-76
2023/09/12 05:10:08;;;;;;;175.43;78.22;;;;;;;-144.73;100.00;54428.22;5030333;28;20036;-75
2023/09/12 05:12:34;;;;;;;182.43;83.03;;;;;;;-144.73;100.00;54440.53;5032476;28;20033;-76
2023/09/12 05:14:59;;;;;;;194.88;86.03;;;;;;;-144.73;100.00;54407.69;5030965;28;20033;-76
2023/09/12 05:17:25;;;;;;;201.00;91.07;;;;;;;-144.73;100.00;54420.00;5032001;28;20017;-76
2023/09/12 05:19:50;;;;;;;208.98;93.82;;;;;;;-144.73;100.00;54381.00;5030222;28;20049;-76
2023/09/12 05:22:15;;;;;;;195.57;87.28;;;;;;;-144.73;100.00;54428.22;5032531;28;20096;-76
2023/09/12 05:24:41;;;;;;;202.15;87.35;;;;;;;-144.73;100.00;54459.00;5031087;28;20025;-76
2023/09/12 05:27:06;;;;;;;180.07;79.40;;;;;;;-144.73;100.00;54415.91;5030684;28;20024;-76
2023/09/12 05:29:31;;;;;;;220.80;90.93;;;;;;;-144.73;100.00;54444.66;5030710;28;20105;-76
2023/09/12 05:31:57;;;;;;;250.43;98.10;;;;;;;-144.73;100.00;54399.50;5029935;28;20033;-76
2023/09/12 05:34:22;;;;;;;247.00;104.97;;;;;;;-144.73;100.00;54438.50;5031246;28;20025;-76
2023/09/12 05:36:48;;;;;;;217.57;92.18;;;;;;;-144.73;100.00;54415.91;5029444;28;20045;-76
2023/09/12 05:39:16;;;;;;;240.93;96.88;;;;;;;-144.73;100.00;54415.91;5030625;28;20025;-76
2023/09/12 05:41:41;;;;;;;219.35;94.80;;;;;;;-144.73;100.00;54387.19;5029883;28;20089;-76
2023/09/12 05:44:07;;;;;;;233.48;95.97;;;;;;;-144.73;100.00;54432.31;5030532;28;20096;-76
2023/09/12 05:46:32;;;;;;;229.68;97.10;;;;;;;-144.73;100.00;54385.13;5029799;28;20105;-76
2023/09/12 05:48:58;;;;;;;240.65;96.82;;;;;;;-144.73;100.00;54440.53;5029993;28;20064;-76
2023/09/12 05:51:23;;;;;;;245.20;96.03;;;;;;;-144.73;100.00;54440.53;5029825;28;20029;-76
2023/09/12 05:53:49;;;;;;;273.75;97.35;;;;;;;-144.73;100.00;54444.66;5029855;28;20075;-76
2023/09/12 05:56:14;;;;;;;206.65;87.20;;;;;;;-144.73;100.00;54422.06;5029462;28;20160;-76
2023/09/12 05:58:42;;;;;;;235.10;99.32;;;;;;;-144.73;100.00;54432.31;5030394;28;20068;-76
2023/09/12 06:01:08;;;;;;;289.45;111.95;;;;;;;-144.73;100.00;54391.28;5029782;28;20029;-76
2023/09/12 06:03:34;;;;;;;255.52;101.63;;;;;;;-144.73;100.00;54415.91;5030330;28;20018;-76
2023/09/12 06:05:59;;;;;;;238.82;99.63;;;;;;;-144.73;100.00;54409.75;5029240;28;20461;-79
2023/09/12 06:08:24;;;;;;;304.83;113.45;;;;;;;-144.73;100.00;54432.31;5029346;28;20040;-76
2023/09/12 06:10:53;;;;;;;312.73;112.47;;;;;;;-144.73;100.00;54461.06;5027288;28;20041;-76
2023/09/12 06:13:19;;;;;;;216.73;91.88;;;;;;;-144.73;100.00;54420.00;5030495;28;20031;-76
2023/09/12 06:15:45;;;;;;;199.82;90.03;;;;;;;-144.73;100.00;54407.69;5029474;28;20121;-77
2023/09/12 06:18:10;;;;;;;181.73;82.78;;;;;;;-144.73;100.00;54432.31;5030124;28;20028;-76
2023/09/12 06:20:35;;;;;;;183.25;82.18;;;;;;;-144.73;100.00;54473.38;5029168;28;20439;-76
2023/09/12 06:23:01;;;;;;;181.68;84.95;;;;;;;-144.73;100.00;54489.81;5030453;28;20032;-78
2023/09/12 06:25:28;;;;;;;225.55;97.68;;;;;;;-144.73;100.00;54395.38;5030789;28;20037;-75
2023/09/12 06:27:54;;;;;;;169.45;81.32;;;;;;;-144.73;100.00;54428.22;5030033;28;20029;-75
2023/09/12 06:30:19;;;;;;;160.95;77.28;;;;;;;-144.73;100.00;54420.00;5026834;28;20052;-75
2023/09/12 06:32:44;;;;;;;191.25;88.18;;;;;;;-144.73;100.00;54448.75;5027766;28;20021;-75
2023/09/12 06:35:10;;;;;;;169.43;80.93;;;;;;;-144.73;100.00;54481.59;5029641;28;20079;-75
2023/09/12 06:37:38;;;;;;;166.52;79.03;;;;;;;-144.73;100.00;54426.16;5029652;28;20104;-76
2023/09/12 06:40:03;;;;;;;222.65;95.70;;;;;;;-144.73;100.00;54469.28;5029590;28;20026;-75
2023/09/12 06:42:29;;;;;;;202.98;89.68;;;;;;;-144.73;100.00;54456.97;5031078;28;20031;-75
2023/09/12 06:44:54;;;;;;;223.73;94.10;;;;;;;-144.73;100.00;54440.53;5028833;28;20025;-77
2023/09/12 06:47:20;;;;;;;202.27;86.90;;;;;;;-144.73;100.00;54456.97;5025479;28;20087;-75
2023/09/12 06:49:45;;;;;;;180.07;80.32;;;;;;;-144.73;100.00;54465.16;5028870;28;20036;-75
2023/09/12 06:52:10;;;;;;;181.45;83.70;;;;;;;-144.73;100.00;54444.66;5030476;28;20029;-76
2023/09/12 06:54:36;;;;;;;149.23;71.70;;;;;;;-144.73;100.00;54407.69;5030916;28;20067;-75
2023/09/12 06:57:02;;;;;;;148.82;73.03;;;;;;;-144.73;100.00;54465.16;5025953;28;20064;-75
2023/09/12 06:59:27;;;;;;;167.60;76.90;;;;;;;-144.73;100.00;54467.22;5030794;28;20025;-75
2023/09/12 07:01:52;;;;;;;181.75;79.32;;;;;;;-144.73;100.00;54448.75;5029679;28;20049;-75
2023/09/12 07:04:18;;;;;;;155.15;75.60;;;;;;;-144.73;100.00;54436.44;5031228;28;20018;-75
2023/09/12 07:06:43;;;;;;;149.23;72.65;;;;;;;-144.73;100.00;54438.50;5029410;28;20029;-75
2023/09/12 07:09:11;;;;;;;144.95;70.57;;;;;;;-144.73;100.00;54454.91;5031439;28;20022;-75
2023/09/12 07:11:36;;;;;;;159.98;77.18;;;;;;;-144.73;100.00;54420.00;5027003;28;20049;-75
2023/09/12 07:14:03;;;;;;;160.80;76.18;;;;;;;-144.73;100.00;54391.28;5031483;28;20041;-75
2023/09/12 07:16:31;;;;;;;119.43;64.72;;;;;;;-144.73;100.00;54444.66;5029804;28;20053;-75
2023/09/12 07:18:57;;;;;;;148.65;72.40;;;;;;;-144.73;100.00;54417.97;5030057;28;20026;-75
2023/09/12 07:21:22;;;;;;;124.60;66.18;;;;;;;-144.73;100.00;54442.59;5029416;28;20037;-76
2023/09/12 07:23:48;;;;;;;149.05;71.20;;;;;;;-144.73;100.00;54407.69;5029681;28;20021;-75
2023/09/12 07:26:14;;;;;;;158.93;73.82;;;;;;;-144.73;100.00;54430.28;5029234;28;20049;-75
2023/09/12 07:28:40;;;;;;;166.68;74.93;;;;;;;-144.73;100.00;54424.13;5027627;28;20026;-75
2023/09/12 07:31:05;;;;;;;159.15;75.88;;;;;;;-144.73;100.00;54444.66;5029706;28;20096;-75
2023/09/12 07:33:31;;;;;;;170.48;81.10;;;;;;;-144.73;100.00;54407.69;5033678;28;20025;-76
2023/09/12 07:35:56;;;;;;;173.63;82.18;;;;;;;-144.73;100.00;54424.13;5032654;28;20365;-75
2023/09/12 07:38:22;;;;;;;167.63;79.88;;;;;;;-144.73;100.00;54430.28;5033386;28;20044;-75
2023/09/12 07:40:47;;;;;;;152.02;69.35;;;;;;;-144.73;100.00;54438.50;5032397;28;20076;-75
2023/09/12 07:43:13;;;;;;;166.88;78.78;;;;;;;-144.73;100.00;54456.97;5032415;28;20021;-75
2023/09/12 07:45:38;;;;;;;158.45;75.47;;;;;;;-144.73;100.00;54461.06;5032867;28;20029;-75
2023/09/12 07:48:06;;;;;;;154.35;75.65;;;;;;;-144.73;100.00;54415.91;5031115;28;20112;-75
2023/09/12 07:50:32;;;;;;;149.48;71.47;;;;;;;-144.73;100.00;54432.31;5030944;28;20053;-75
2023/09/12 07:52:57;;;;;;;157.20;75.28;;;;;;;-144.73;100.00;54440.53;5032376;28;20033;-75
2023/09/12 07:55:23;;;;;;;176.48;80.70;;;;;;;-144.73;100.00;54424.13;5015415;28;20080;-75
2023/09/12 07:57:48;;;;;;;94.55;55.00;;;;;;;-144.73;100.00;54432.31;5017230;28;20026;-74
2023/09/12 08:00:14;;;;;;;110.97;63.33;;;;;;;-144.73;100.00;54436.44;5021374;28;20041;-75
2023/09/12 08:02:39;;;;;;;130.57;71.10;;;;;;;-144.73;100.00;54452.84;5019966;28;20047;-74
2023/09/12 08:05:06;;;;;;;135.82;70.03;;;;;;;-144.73;100.00;54469.28;5017650;28;20117;-74
2023/09/12 08:07:31;;;;;;;111.93;59.70;;;;;;;-144.73;100.00;54415.91;5018322;28;20028;-74
2023/09/12 08:09:58;;;;;;;141.73;74.55;;;;;;;-144.73;100.00;54444.66;5019159;28;20042;-74
2023/09/12 08:12:25;;;;;;;176.30;81.55;;;;;;;-144.73;100.00;54473.38;5021278;28;20018;-74
2023/09/12 08:14:51;;;;;;;176.05;83.93;;;;;;;-144.73;100.00;54440.53;5021099;28;20033;-74
2023/09/12 08:17:17;;;;;;;122.18;65.55;;;;;;;-144.73;100.00;54491.84;5021834;28;20017;-74
2023/09/12 08:19:43;;;;;;;95.53;54.90;;;;;;;-144.73;100.00;54444.66;5020017;28;20476;-74
2023/09/12 08:22:15;;;;;;;155.43;78.85;;;;;;;-144.73;100.00;54448.75;5013478;28;20024;-74
2023/09/12 08:24:40;;;;;;;144.82;72.32;;;;;;;-144.73;100.00;54395.38;5027668;28;20472;-74
2023/09/12 08:27:06;;;;;;;162.05;80.22;;;;;;;-144.73;100.00;54430.28;5025924;28;20079;-75
2023/09/12 08:29:33;;;;;;;162.82;78.25;;;;;;;-144.73;100.00;54432.31;5027693;28;20071;-75
2023/09/12 08:31:59;;;;;;;140.32;74.15;;;;;;;-144.73;100.00;54424.13;5026791;28;20068;-74
2023/09/12 08:34:24;;;;;;;129.85;69.60;;;;;;;-144.73;100.00;54448.75;5028012;28;20026;-75
2023/09/12 08:36:51;;;;;;;122.88;68.07;;;;;;;-144.73;100.00;54432.31;5028087;28;20029;-75
2023/09/12 08:39:22;;;;;;;141.82;71.53;;;;;;;-144.73;100.00;54417.97;5022489;28;20057;-74
2023/09/12 08:41:49;;;;;;;126.50;66.75;;;;;;;-144.73;100.00;54434.38;5024801;28;20033;-75
2023/09/12 08:44:15;;;;;;;112.22;62.60;;;;;;;-144.73;100.00;54467.22;5023064;28;20021;-75
2023/09/12 08:46:42;;;;;;;113.97;66.38;;;;;;;-144.73;100.00;54456.97;5024104;28;20105;-74
2023/09/12 08:49:09;;;;;;;90.38;54.60;;;;;;;-144.73;100.00;54420.00;5026996;28;20029;-74
2023/09/12 08:51:41;;;;;;;98.60;54.40;;;;;;;-144.73;100.00;54461.06;5025275;28;20084;-75
2023/09/12 08:54:09;;;;;;;99.30;56.88;;;;;;;-144.73;100.00;54424.13;5029242;28;20026;-74
2023/09/12 08:56:39;;;;;;;95.45;56.78;;;;;;;-144.73;100.00;54440.53;5022624;28;20109;-75
2023/09/12 08:59:05;;;;;;;91.22;56.30;;;;;;;-144.73;100.00;54440.53;5027965;28;20063;-74
2023/09/12 09:01:32;;;;;;;92.00;56.20;;;;;;;-144.73;100.00;54444.66;5027549;28;20046;-74
2023/09/12 09:03:57;;;;;;;87.10;51.25;;;;;;;-144.73;100.00;54432.31;5027681;28;20025;-74
2023/09/12 09:06:25;;;;;;;90.97;54.35;;;;;;;-144.73;100.00;54448.75;5026720;28;20072;-74
2023/09/12 09:08:50;;;;;;;88.50;53.40;;;;;;;-144.73;100.00;54424.13;5023359;28;20113;-74
2023/09/12 09:11:16;;;;;;;85.22;51.47;;;;;;;-144.73;100.00;54409.75;5025785;28;20183;-74
2023/09/12 09:13:42;;;;;;;80.40;49.25;;;;;;;-144.73;100.00;54456.97;5024385;28;20018;-74
2023/09/12 09:16:21;;;;;;;78.97;52.22;;;;;;;-144.73;100.00;54444.66;5025367;28;20041;-74
2023/09/12 09:18:50;;;;;;;80.63;49.88;;;;;;;-144.73;100.00;54428.22;5027720;28;20018;-75
2023/09/12 09:21:22;;;;;;;84.65;50.05;;;;;;;-144.73;100.00;54440.53;5025017;28;20041;-75
2023/09/12 09:23:47;;;;;;;83.22;50.20;;;;;;;-144.73;100.00;54417.97;5027236;28;20514;-74
2023/09/12 09:26:13;;;;;;;88.63;50.50;;;;;;;-144.73;100.00;54465.16;5027060;28;20030;-74
2023/09/12 09:28:39;;;;;;;61.75;40.13;;;;;;;-144.73;100.00;54444.66;5026307;28;20017;-74
2023/09/12 09:31:09;;;;;;;72.35;48.40;;;;;;;-144.73;100.00;54452.84;5025766;28;20036;-74
2023/09/12 09:33:36;;;;;;;77.30;48.38;;;;;;;-144.73;100.00;54436.44;5026249;28;20472;-74
2023/09/12 09:36:06;;;;;;;73.35;46.95;;;;;;;-144.73;100.00;54456.97;5025586;28;20048;-74
2023/09/12 09:38:31;;;;;;;68.70;45.42;;;;;;;-144.73;100.00;54407.69;5026819;28;20022;-74
2023/09/12 09:40:58;;;;;;;65.03;44.97;;;;;;;-144.73;100.00;54432.31;5025398;28;20052;-74
2023/09/12 09:43:24;;;;;;;69.18;45.00;;;;;;;-144.73;100.00;54446.69;5026922;28;20018;-74
2023/09/12 09:45:50;;;;;;;67.32;44.55;;;;;;;-144.73;100.00;54424.13;5026029;28;20118;-74
2023/09/12 09:48:20;;;;;;;68.22;44.72;;;;;;;-144.73;100.00;54452.84;5025699;28;20022;-73
2023/09/12 09:50:45;;;;;;;62.00;42.83;;;;;;;-144.73;100.00;54424.13;5025779;28;20049;-75
2023/09/12 09:53:11;;;;;;;62.55;41.08;;;;;;;-144.73;100.00;54440.53;5020405;28;20028;-74
2023/09/12 09:55:36;;;;;;;54.55;37.50;;;;;;;-144.73;100.00;54422.06;5025297;28;20029;-74
2023/09/12 09:58:04;;;;;;;60.25;38.53;;;;;;;-144.73;100.00;54428.22;5026029;28;20068;-74
2023/09/12 10:00:33;;;;;;;64.05;40.75;;;;;;;-144.73;100.00;54434.38;5026104;28;20037;-74
2023/09/12 10:02:59;;;;;;;62.10;43.78;;;;;;;-144.73;100.00;54450.81;5026099;28;20031;-74
2023/09/12 10:05:28;;;;;;;63.88;42.05;;;;;;;-144.73;100.00;54420.00;5026889;28;20055;-74
2023/09/12 10:07:56;;;;;;;56.47;40.90;;;;;;;-144.73;100.00;54446.69;5026721;28;20034;-73
2023/09/12 10:10:24;;;;;;;57.45;39.42;;;;;;;-144.73;100.00;54454.91;5021225;28;20497;-74
2023/09/12 10:12:55;;;;;;;55.03;37.28;;;;;;;-144.73;100.00;54485.69;5027158;28;20033;-74
2023/09/12 10:15:22;;;;;;;68.07;41.60;;;;;;;-144.73;100.00;54444.66;5025555;28;20029;-73
2023/09/12 10:17:56;;;;;;;70.13;43.72;;;;;;;-144.73;100.00;54461.06;5025365;28;20103;-73
2023/09/12 10:20:26;;;;;;;65.25;42.50;;;;;;;-144.73;100.00;54434.38;5026211;28;20070;-73
2023/09/12 10:23:01;;;;;;;73.23;44.23;;;;;;;-144.73;100.00;54461.06;5025181;28;20430;-74
2023/09/12 10:25:29;;;;;;;66.63;39.97;;;;;;;-144.73;100.00;54473.38;5025807;28;20040;-73
2023/09/12 10:27:54;;;;;;;71.47;44.33;;;;;;;-144.73;100.00;54399.50;5026773;28;20040;-74
2023/09/12 10:30:22;;;;;;;64.18;40.50;;;;;;;-144.73;100.00;54422.06;5024085;28;20030;-74
2023/09/12 10:32:49;;;;;;;71.07;40.80;;;;;;;-144.73;100.00;54440.53;5025794;28;20033;-74
2023/09/12 10:35:15;;;;;;;67.03;41.60;;;;;;;-144.73;100.00;54444.66;5025547;28;20037;-74
2023/09/12 10:37:43;;;;;;;58.03;37.72;;;;;;;-144.73;100.00;54465.16;5023071;28;20538;-74
2023/09/12 10:40:11;;;;;;;62.13;40.60;;;;;;;-144.73;100.00;54415.91;5024942;28;20029;-73
2023/09/12 10:42:36;;;;;;;66.50;42.45;;;;;;;-144.73;100.00;54440.53;5025166;28;20067;-74
2023/09/12 10:45:07;;;;;;;61.17;35.22;;;;;;;-144.73;100.00;54465.16;5025520;28;20037;-73